Main page
METAR-TAF:

METAR-TAF

Airports :

Donegal Airport

Donegal, Ireland

latitude: 55-02-39N, longitude: 8-20-28W, elevation: 9 m

Current weather observation

The report was made 26 minutes ago, at 18:30 UTC
Wind 7 kt from the North/Northeast
Temperature 13°C
Humidity 72%
Pressure 1026 hPa
Visibility 10 km or more
Scattered clouds at a height of 4300 ft

METAR: EIDL 241830Z 02007KT 9999 SCT043 13/08 Q1026

Time: 19:56 (18:56 UTC)

Forecast

The report was made 1 hour and 56 minutes ago, at 17:00 UTC
Forecast valid from 24 at 18 UTC to 25 at 03 UTC
Wind 10 kt from the North
Visibility 10 km or more
Few clouds at a height of 2500 ft
Scattered clouds at a height of 4000 ft
Becoming
from 24 at 22 UTC to 24 at 24 UTC
Wind 3 kt from variable directions

TAF: EIDL 241700Z 2418/2503 35010KT 9999 FEW025 SCT040 BECMG 2422/2424 VRB03KT

Weather observations and forecasts of more than 4000 airports (METAR and TAF reports).

The available stations are represented by yellow and red dots on the map.

Hover mouse over dot to see the name of the station.

Then click to see weather observations and forecasts.

To change the map : click on the green buttons with a black cross to zoom in, on the green button with a dash to zoom out, or on the green arrows for adjacent maps.


METAR-TAF: